createdAt,value
2018-07-27T00:04:17.514Z,24.75
2018-07-27T00:09:15.034Z,24.65
2018-07-27T00:14:12.494Z,24.61
2018-07-27T00:19:09.990Z,24.61
2018-07-27T00:24:07.453Z,24.50
2018-07-27T00:34:10.933Z,23.75
2018-07-27T00:39:09.557Z,24.00
2018-07-27T00:44:07.449Z,23.76
2018-07-27T00:49:04.986Z,23.74
2018-07-27T00:54:02.455Z,24.27
2018-07-27T00:59:02.295Z,24.03
2018-07-27T01:03:59.772Z,24.12
2018-07-27T01:08:57.222Z,24.22
2018-07-27T01:13:54.678Z,23.92
2018-07-27T01:18:52.219Z,23.74
2018-07-27T01:23:49.693Z,23.90
2018-07-27T01:28:47.152Z,23.79
2018-07-27T01:33:44.634Z,23.79
2018-07-27T01:38:42.105Z,23.38
2018-07-27T01:43:39.552Z,22.86
2018-07-27T01:48:37.057Z,22.67
2018-07-27T01:53:34.518Z,22.47
2018-07-27T01:58:31.969Z,22.92
2018-07-27T02:03:29.417Z,22.74
2018-07-27T02:08:26.902Z,22.74
2018-07-27T02:13:24.390Z,22.67
2018-07-27T02:18:21.890Z,23.07
2018-07-27T02:23:19.393Z,23.04
2018-07-27T02:28:16.962Z,22.87
2018-07-27T02:33:14.433Z,22.37
2018-07-27T02:38:11.893Z,22.50
2018-07-27T02:43:09.418Z,22.11
2018-07-27T02:48:06.886Z,21.96
2018-07-27T02:53:04.482Z,21.76
2018-07-27T02:58:01.974Z,22.10
2018-07-27T03:02:59.494Z,21.76
2018-07-27T03:07:56.989Z,21.34
2018-07-27T03:12:54.551Z,21.43
2018-07-27T03:17:52.075Z,21.39
2018-07-27T03:22:49.570Z,21.45
2018-07-27T03:27:47.074Z,21.55
2018-07-27T03:32:44.628Z,21.39
2018-07-27T03:37:42.126Z,21.81
2018-07-27T03:42:39.722Z,22.04
2018-07-27T03:47:37.201Z,22.35
2018-07-27T03:52:34.703Z,22.41
2018-07-27T03:57:32.231Z,22.49
2018-07-27T04:02:29.755Z,22.36
2018-07-27T04:07:27.289Z,22.60
2018-07-27T04:12:26.714Z,22.74
2018-07-27T04:17:24.291Z,22.69
2018-07-27T04:22:22.266Z,22.60
2018-07-27T04:27:19.958Z,22.68
2018-07-27T04:32:17.482Z,22.74
2018-07-27T04:37:15.014Z,22.84
2018-07-27T04:42:12.511Z,22.84
2018-07-27T04:47:10.036Z,22.93
2018-07-27T04:52:07.523Z,23.10
2018-07-27T04:57:05.100Z,23.06
2018-07-27T05:02:02.638Z,23.19
2018-07-27T05:07:00.134Z,23.33
2018-07-27T05:11:57.809Z,23.41
2018-07-27T05:16:55.297Z,23.55
2018-07-27T05:21:52.777Z,23.87
2018-07-27T05:26:50.271Z,23.94
2018-07-27T05:31:48.308Z,24.14
2018-07-27T05:36:45.810Z,24.39
2018-07-27T05:41:43.354Z,24.60
2018-07-27T05:46:40.942Z,24.97
2018-07-27T05:51:38.426Z,25.54
2018-07-27T05:56:35.942Z,25.97
2018-07-27T06:01:33.438Z,25.92
2018-07-27T06:06:30.899Z,26.14
2018-07-27T06:11:28.393Z,26.36
2018-07-27T06:16:25.893Z,26.75
2018-07-27T06:21:23.491Z,26.84
2018-07-27T06:26:20.994Z,26.95
2018-07-27T06:31:18.569Z,27.15
2018-07-27T06:36:17.612Z,27.58
2018-07-27T06:41:16.470Z,27.53
2018-07-27T06:46:14.014Z,27.40
2018-07-27T06:51:11.504Z,27.42
2018-07-27T06:56:09.076Z,27.53
2018-07-27T07:01:06.666Z,27.47
2018-07-27T07:06:04.214Z,27.88
2018-07-27T07:11:01.709Z,28.01
2018-07-27T07:15:59.207Z,28.16
2018-07-27T07:20:56.682Z,28.07
2018-07-27T07:25:54.343Z,28.36
2018-07-27T07:30:51.707Z,28.45
2018-07-27T07:35:49.191Z,29.29
2018-07-27T07:40:46.678Z,29.78
2018-07-27T07:45:44.164Z,30.31
2018-07-27T07:50:41.670Z,30.42
2018-07-27T07:55:39.245Z,29.72
2018-07-27T08:00:36.769Z,30.83
2018-07-27T08:05:34.333Z,31.57
2018-07-27T08:10:31.802Z,31.53
2018-07-27T08:15:29.290Z,31.13
2018-07-27T08:20:26.768Z,31.02
2018-07-27T08:25:24.298Z,30.47
2018-07-27T08:30:21.829Z,31.12
2018-07-27T08:35:19.347Z,31.90
2018-07-27T08:40:16.892Z,32.41
2018-07-27T08:45:14.478Z,32.19
2018-07-27T08:50:11.993Z,31.17
2018-07-27T08:55:09.499Z,31.33
2018-07-27T09:00:07.039Z,32.25
2018-07-27T09:05:04.603Z,31.90
2018-07-27T09:10:02.104Z,32.47
2018-07-27T09:14:59.678Z,32.89
2018-07-27T09:19:57.169Z,31.92
2018-07-27T09:24:54.993Z,32.06
2018-07-27T09:29:53.400Z,31.93
2018-07-27T09:34:57.530Z,32.45
2018-07-27T09:39:55.171Z,33.08
2018-07-27T09:44:52.762Z,33.16
2018-07-27T09:49:50.267Z,33.50
2018-07-27T09:54:47.750Z,33.61
2018-07-27T09:59:46.301Z,33.81
2018-07-27T10:04:43.798Z,33.26
2018-07-27T10:09:42.558Z,33.37
2018-07-27T10:14:46.761Z,34.04
2018-07-27T10:19:47.125Z,34.30
2018-07-27T10:24:44.666Z,33.73
2018-07-27T10:29:43.190Z,33.52
2018-07-27T10:34:40.712Z,34.48
2018-07-27T10:39:38.197Z,34.51
2018-07-27T10:44:35.735Z,34.14
2018-07-27T10:49:33.402Z,34.84
2018-07-27T10:54:30.905Z,34.23
2018-07-27T10:59:29.437Z,34.45
2018-07-27T11:04:26.944Z,33.62
2018-07-27T11:09:24.493Z,33.83
2018-07-27T11:14:22.015Z,33.01
2018-07-27T11:19:19.559Z,33.83
2018-07-27T11:24:17.115Z,33.76
2018-07-27T11:29:17.659Z,33.96
2018-07-27T11:34:15.482Z,33.46
2018-07-27T11:39:13.117Z,34.39
2018-07-27T11:44:10.711Z,34.15
2018-07-27T11:49:08.258Z,34.81
2018-07-27T11:54:05.814Z,33.92
2018-07-27T11:59:14.783Z,34.58
2018-07-27T12:04:12.478Z,33.94
2018-07-27T12:09:11.058Z,33.76
2018-07-27T12:14:08.848Z,34.45
2018-07-27T12:19:06.143Z,34.72
2018-07-27T12:24:03.657Z,34.70
2018-07-27T12:29:10.546Z,34.80
2018-07-27T12:34:08.080Z,34.60
2018-07-27T12:39:08.542Z,35.36
2018-07-27T12:44:06.098Z,34.97
2018-07-27T12:49:03.748Z,34.28
2018-07-27T12:54:01.254Z,35.55
2018-07-27T12:59:02.641Z,35.11
2018-07-27T13:04:00.253Z,34.25
2018-07-27T13:08:57.796Z,34.73
2018-07-27T13:13:55.333Z,35.49
2018-07-27T13:18:53.037Z,35.66
2018-07-27T13:23:55.909Z,35.77
2018-07-27T13:28:56.925Z,35.65
2018-07-27T13:34:05.575Z,35.12
2018-07-27T13:39:03.936Z,35.45
2018-07-27T13:44:03.837Z,34.58
2018-07-27T13:49:06.463Z,34.95
2018-07-27T13:54:06.454Z,35.50
2018-07-27T13:59:09.638Z,35.81
2018-07-27T14:04:14.789Z,36.20
2018-07-27T14:09:17.570Z,35.24
2018-07-27T14:14:22.799Z,35.33
2018-07-27T14:24:35.963Z,35.26
2018-07-27T14:29:40.299Z,35.37
2018-07-27T14:34:40.538Z,35.91
2018-07-27T14:39:41.081Z,36.25
2018-07-27T14:44:42.023Z,36.34
2018-07-27T14:49:44.794Z,36.67
2018-07-27T14:54:44.952Z,36.03
2018-07-27T14:59:54.405Z,35.71
2018-07-27T15:04:54.911Z,36.85
2018-07-27T15:09:54.433Z,37.18
2018-07-27T15:14:57.535Z,37.37
2018-07-27T15:19:58.592Z,36.45
2018-07-27T15:24:59.881Z,36.87
2018-07-27T15:30:05.941Z,37.30
2018-07-27T15:35:05.100Z,37.52
2018-07-27T15:40:02.690Z,37.60
2018-07-27T15:45:00.178Z,37.38
2018-07-27T15:49:57.696Z,36.75
2018-07-27T15:54:55.252Z,36.64
2018-07-27T15:59:52.807Z,36.78
2018-07-27T16:04:50.369Z,36.87
2018-07-27T16:09:47.903Z,36.99
2018-07-27T16:14:45.426Z,37.09
2018-07-27T16:19:42.982Z,37.14
2018-07-27T16:24:40.493Z,36.97
2018-07-27T16:29:39.014Z,37.16
2018-07-27T16:34:43.762Z,37.62
2018-07-27T16:39:41.398Z,38.27
2018-07-27T16:44:38.918Z,38.06
2018-07-27T16:49:37.984Z,38.09
2018-07-27T16:54:35.535Z,38.40
2018-07-27T16:59:36.652Z,37.77
2018-07-27T17:04:35.353Z,38.28
2018-07-27T17:09:34.651Z,39.23
2018-07-27T17:14:33.445Z,40.17
2018-07-27T17:19:31.305Z,39.77
2018-07-27T17:24:30.183Z,38.99
2018-07-27T17:29:32.440Z,38.82
2018-07-27T17:34:30.927Z,37.77
2018-07-27T17:39:31.017Z,37.45
2018-07-27T17:44:30.198Z,36.82
2018-07-27T17:49:28.542Z,36.55
2018-07-27T17:54:26.117Z,36.44
2018-07-27T17:59:26.759Z,36.40
2018-07-27T18:04:24.414Z,36.66
2018-07-27T18:09:21.927Z,36.85
2018-07-27T18:14:19.437Z,36.44
2018-07-27T18:19:16.969Z,36.03
2018-07-27T18:24:14.466Z,35.80
2018-07-27T18:29:15.592Z,34.91
2018-07-27T18:34:13.256Z,35.08
2018-07-27T18:39:11.891Z,34.81
2018-07-27T18:44:09.423Z,33.94
2018-07-27T18:49:07.085Z,33.14
2018-07-27T18:54:04.921Z,32.92
2018-07-27T18:59:08.255Z,32.42
2018-07-27T19:04:07.366Z,32.07
2018-07-27T19:09:08.420Z,31.66
2018-07-27T19:14:08.527Z,31.32
2018-07-27T19:19:06.944Z,30.88
2018-07-27T19:24:07.278Z,30.63
2018-07-27T19:29:05.646Z,30.34
2018-07-27T19:34:04.082Z,30.18
2018-07-27T19:39:01.942Z,30.00
2018-07-27T19:43:59.915Z,29.72
2018-07-27T19:48:58.092Z,29.85
2018-07-27T19:53:56.443Z,29.77
2018-07-27T19:58:54.624Z,29.73
2018-07-27T20:03:52.621Z,29.58
2018-07-27T20:08:50.683Z,29.48
2018-07-27T20:13:49.352Z,29.35
2018-07-27T20:18:47.639Z,29.23
2018-07-27T20:23:46.746Z,29.10
2018-07-27T20:28:45.093Z,28.99
2018-07-27T20:33:43.234Z,28.78
2018-07-27T20:38:41.413Z,28.78
2018-07-27T20:43:39.524Z,28.62
2018-07-27T20:48:37.719Z,28.52
2018-07-27T20:53:36.959Z,28.43
2018-07-27T20:58:34.983Z,28.34
2018-07-27T21:03:32.971Z,28.26
2018-07-27T21:08:30.876Z,28.12
2018-07-27T21:13:28.374Z,28.01
2018-07-27T21:18:25.843Z,27.88
2018-07-27T21:23:28.365Z,27.69
2018-07-27T21:28:26.032Z,27.45
2018-07-27T21:33:23.506Z,27.41
2018-07-27T21:38:21.663Z,27.31
2018-07-27T21:43:19.221Z,27.04
2018-07-27T21:48:16.677Z,27.01
2018-07-27T21:53:16.756Z,26.99
2018-07-27T21:58:14.234Z,26.92
2018-07-27T22:03:11.718Z,26.77
2018-07-27T22:08:09.251Z,26.44
2018-07-27T22:13:06.753Z,26.52
2018-07-27T22:18:04.308Z,26.50
2018-07-27T22:23:15.067Z,26.59
2018-07-27T22:28:12.627Z,26.62
2018-07-27T22:33:10.094Z,26.67
2018-07-27T22:38:07.568Z,26.65
2018-07-27T22:43:05.128Z,26.66
2018-07-27T22:48:02.587Z,26.57
2018-07-27T22:53:09.706Z,26.55
2018-07-27T22:58:07.318Z,26.51
2018-07-27T23:03:04.992Z,26.45
2018-07-27T23:08:02.520Z,26.37
2018-07-27T23:13:00.040Z,26.31
2018-07-27T23:17:57.511Z,26.26
2018-07-27T23:23:00.000Z,26.27
2018-07-27T23:27:57.560Z,26.17
2018-07-27T23:32:55.017Z,26.22
2018-07-27T23:37:52.465Z,26.13
2018-07-27T23:42:49.943Z,26.10
2018-07-27T23:47:47.458Z,26.07
2018-07-27T23:52:45.303Z,26.02
2018-07-27T23:57:42.891Z,26.01
